createdAt,value
2022-10-18T00:00:46.751Z,16.760000000000005
2022-10-18T00:16:02.703Z,16.500000000000004
2022-10-18T00:31:18.685Z,16.27
2022-10-18T00:46:35.676Z,16.11
2022-10-18T01:01:51.655Z,15.810000000000004
2022-10-18T01:17:08.595Z,15.699999999999998
2022-10-18T01:32:25.567Z,15.650000000000002
2022-10-18T01:47:42.550Z,15.409999999999998
2022-10-18T02:02:58.508Z,15.26
2022-10-18T02:18:14.482Z,15.230000000000004
2022-10-18T02:33:46.859Z,15.079999999999998
2022-10-18T02:48:47.453Z,14.730000000000002
2022-10-18T03:04:04.411Z,14.610000000000001
2022-10-18T03:19:21.414Z,14.519999999999998
2022-10-18T03:34:38.371Z,14.37
2022-10-18T03:49:57.021Z,14.319999999999999
2022-10-18T04:05:10.283Z,14.129999999999999
2022-10-18T04:20:26.290Z,13.97
2022-10-18T04:35:43.279Z,13.930000000000001
2022-10-18T04:51:00.236Z,13.73
2022-10-18T05:06:17.213Z,13.57
2022-10-18T05:21:33.203Z,13.49
2022-10-18T05:36:50.179Z,13.59
2022-10-18T05:52:06.145Z,13.49
2022-10-18T06:07:22.116Z,13.5
2022-10-18T06:22:38.105Z,13.4
2022-10-18T06:37:55.060Z,13.78
2022-10-18T06:53:12.035Z,14.240000000000002
2022-10-18T07:08:29.004Z,15.399999999999999
2022-10-18T07:23:44.952Z,15.69
2022-10-18T07:39:01.948Z,16.3
2022-10-18T07:54:17.895Z,16.38
2022-10-18T08:09:33.883Z,17.14
2022-10-18T08:24:49.822Z,17.22
2022-10-18T08:40:07.839Z,17.754879699550496
2022-10-18T08:55:24.767Z,17.509278862990953
2022-10-18T09:10:41.770Z,17.84893267862357
2022-10-18T09:25:57.705Z,17.436696663171904
2022-10-18T09:41:14.721Z,17.380420120126487
2022-10-18T09:56:30.666Z,17.77481228028232
2022-10-18T10:11:46.635Z,17.496807345756
2022-10-18T10:27:03.574Z,16.963276259618777
2022-10-18T10:42:21.572Z,16.856915468586795
2022-10-18T10:57:38.524Z,15.823889568349173
2022-10-18T11:12:54.517Z,15.352918278603664
2022-10-18T11:28:10.437Z,15.912508870326258
2022-10-18T11:43:30.512Z,15.57872457830587
2022-10-18T11:58:43.411Z,14.98776021035363
2022-10-18T12:13:59.352Z,14.867630671532906
2022-10-18T12:29:16.349Z,15.123432052145516
2022-10-18T12:44:34.281Z,14.902508018704683
2022-10-18T12:59:51.273Z,14.821261246595931
2022-10-18T13:15:24.919Z,14.524690433859012
2022-10-18T13:30:23.215Z,14.13817134486222
2022-10-18T13:45:40.160Z,14.502280220987995
2022-10-18T14:00:56.124Z,14.606553440536072
2022-10-18T14:01:39.057Z,14.606553440536072
2022-10-18T14:16:13.090Z,14.4295939093597
2022-10-18T14:31:29.058Z,14.469595584129069
2022-10-18T14:46:46.008Z,14.186527415864596
2022-10-18T15:02:03.000Z,14.30984990858597
2022-10-18T15:17:19.966Z,14.47591313660981
2022-10-18T15:32:35.972Z,14.904566697983146
2022-10-18T15:47:52.905Z,15.076833793392519
2022-10-18T16:03:08.873Z,15.563607526046994
2022-10-18T16:18:24.863Z,15.739328536439057
2022-10-18T16:33:40.815Z,15.998101968659634
2022-10-18T16:48:57.805Z,16.65516547493222
2022-10-18T17:04:14.746Z,17.098330761497706
2022-10-18T17:04:55.623Z,17.098330761497706
2022-10-18T17:19:32.756Z,17.473252243396377
2022-10-18T17:34:49.687Z,17.56524653214574
2022-10-18T17:50:06.686Z,17.46601999623498
2022-10-18T18:05:22.618Z,16.893520430713835
2022-10-18T18:20:38.619Z,17.33422098867028
2022-10-18T18:35:54.588Z,17.09066844231744
2022-10-18T18:51:11.557Z,17.792293671331873
2022-10-18T19:06:28.518Z,18.31
2022-10-18T19:21:45.494Z,17.959999999999997
2022-10-18T19:37:01.470Z,17.619999999999997
2022-10-18T19:52:18.453Z,17.320000000000004
2022-10-18T20:07:34.416Z,17.05
2022-10-18T20:22:50.427Z,16.830000000000002
2022-10-18T20:38:06.319Z,16.62
2022-10-18T20:53:23.298Z,16.42
2022-10-18T21:08:40.301Z,16.320000000000004
2022-10-18T21:23:57.242Z,16.169999999999998
2022-10-18T21:39:09.257Z,15.86
2022-10-18T21:54:25.191Z,15.59
2022-10-18T22:09:42.194Z,15.309999999999999
2022-10-18T22:24:59.134Z,15.25
2022-10-18T22:40:17.111Z,15.07
2022-10-18T22:55:33.061Z,14.94
2022-10-18T23:10:49.073Z,14.730000000000002
2022-10-18T23:26:05.011Z,14.65
2022-10-18T23:41:21.986Z,14.74
2022-10-18T23:56:37.955Z,14.36
